MV Finola — OULQ2 — position and weather

sailwx.info

Track history (hours):
 
Tides and Currents Weather Stations Pressure Air Temp Water Temp Dewpoint Dewpoint Depression Visibility Wind Speed Wind Dir Waves Ship Positions

MV Finola

Last reported at 2017-Jun-13 07:25 UTC. Time now 2017-Jun-24 05:23 UTC.
Position S 32°39' E 152°43'.
Warning: this ship's position is 10 days out of date.

Length 85 m; draft 3.6 m.

Type: Cargo ship. MMSI: 219483000.

Date/timePositionNaut miles runAvg speedWind from/ knotsBaromVisibWave heightAir tempDewpointWater temp
2017-Jun-13 07:25S 32°39' E 152°43'4 9.3
2017-Jun-13 06:58S 32°42' E 152°42'5 9.1
2017-Jun-13 06:24S 32°47' E 152°39'6 9.0
2017-Jun-13 05:43S 32°53' E 152°36'2 8.8
2017-Jun-13 05:30S 32°54' E 152°35'5 9.5
2017-Jun-13 05:00S 32°58' E 152°32'36510.1
2017-Jun-11 16:55S 38°21' E 149°02'  
2017-Jun-05 01:28S 38°01' E 149°24'611.5
2017-Jun-05 00:57S 37°58' E 149°30'511.4
2017-Jun-05 00:30S 37°56' E 149°36'32110.8
2017-Jun-03 18:48S 33°07' E 152°29'511.7
2017-Jun-03 18:23S 33°02' E 152°31'411.1
2017-Jun-03 17:59S 32°58' E 152°33'1110.9
2017-Jun-03 16:56S 32°48' E 152°39'510.4
2017-Jun-03 16:27S 32°44' E 152°42'510.4
2017-Jun-03 16:00S 32°39' E 152°44'510.4
2017-Jun-03 15:30S 32°34' E 152°46'  
Track history (hours):
 
Tides and Currents Weather Stations Pressure Air Temp Water Temp Dewpoint Dewpoint Depression Visibility Wind Speed Wind Dir Waves Ship Positions

MV Finola

Last reported at 2017-Jun-13 07:25 UTC. Time now 2017-Jun-24 05:23 UTC.
Position S 32°39' E 152°43'.
Warning: this ship's position is 10 days out of date.

Length 85 m; draft 3.6 m.

Type: Cargo ship. MMSI: 219483000.

Date/timePositionNaut miles runAvg speedWind from/ knotsBaromVisibWave heightAir tempDewpointWater temp
2017-Jun-13 07:25S 32°39' E 152°43'4 9.3
2017-Jun-13 06:58S 32°42' E 152°42'5 9.1
2017-Jun-13 06:24S 32°47' E 152°39'6 9.0
2017-Jun-13 05:43S 32°53' E 152°36'2 8.8
2017-Jun-13 05:30S 32°54' E 152°35'5 9.5
2017-Jun-13 05:00S 32°58' E 152°32'36510.1
2017-Jun-11 16:55S 38°21' E 149°02'  
2017-Jun-05 01:28S 38°01' E 149°24'611.5
2017-Jun-05 00:57S 37°58' E 149°30'511.4
2017-Jun-05 00:30S 37°56' E 149°36'32110.8
2017-Jun-03 18:48S 33°07' E 152°29'511.7
2017-Jun-03 18:23S 33°02' E 152°31'411.1
2017-Jun-03 17:59S 32°58' E 152°33'1110.9
2017-Jun-03 16:56S 32°48' E 152°39'510.4
2017-Jun-03 16:27S 32°44' E 152°42'510.4
2017-Jun-03 16:00S 32°39' E 152°44'510.4
2017-Jun-03 15:30S 32°34' E 152°46'  

Dump ship's entire track history